Terminal Aerodrome Forecast
Issued by NWS Upton, NY

Home | Current Version | Previous Version | Text Only | Print | Product List | Glossary On
Versions: 1 2 3 4 5 6 7 8 9 10 11 12 13 14 15 16 17 18 19 20 21 22 23 24 25 26 27 28 29 30 31
000
FTUS41 KOKX 282300 RRA
TAFJFK
TAF
KJFK 282341Z 2900/3006 31009KT P6SM SKC
     FM290900 VRB03KT P6SM BKN100
     FM291500 19005KT P6SM SCT070 BKN100
     FM291800 18009KT P6SM SCT040 BKN070
     FM300300 20011KT P6SM SCT030 BKN070=

USA.gov is the U.S. government's official web portal to all federal, state and local government web resources and services.